Time;durP1;ratioP1;P1;durP2;ratioP2;P2;SDS_P1;SDS_P2;PMS_P1;PMS_P2;Temp;Humidity;BMP_temperature;BMP_pressure;BME280_temperature;BME280_humidity;BME280_pressure;Samples;Min_cycle;Max_cycle;Signal;HPM_P1;HPM_P2
2024/01/21 00:03:48;;;;;;;6.90;6.20;;;;;;;;;;2613695;54;20382;-75
2024/01/21 00:09:17;;;;;;;9.73;6.87;;;;;;;;;;2613234;54;20378;-75
2024/01/21 00:14:47;;;;;;;7.60;6.73;;;;;;;;;;2613758;54;20366;-75
2024/01/21 00:20:17;;;;;;;6.10;5.70;;;;;;;;;;2613850;54;20519;-76
2024/01/21 00:25:47;;;;;;;6.30;6.00;;;;;;;;;;2612799;54;20338;-76
2024/01/21 00:37:24;;;;;;;6.40;6.00;;;;;;;;;;2615271;54;20363;-76
2024/01/21 00:42:58;;;;;;;6.60;6.10;;;;;;;;;;2617294;54;20375;-78
2024/01/21 00:48:28;;;;;;;6.00;5.60;;;;;;;;;;2616755;54;20387;-79
2024/01/21 00:53:58;;;;;;;5.30;4.90;;;;;;;;;;2612638;54;20383;-74
2024/01/21 00:59:27;;;;;;;6.97;6.53;;;;;;;;;;2614247;54;20373;-76
2024/01/21 01:04:57;;;;;;;6.77;6.17;;;;;;;;;;2614632;54;20370;-76
2024/01/21 01:10:26;;;;;;;7.27;6.70;;;;;;;;;;2615244;39;20767;-75
2024/01/21 01:15:56;;;;;;;6.90;6.40;;;;;;;;;;2614298;54;20387;-76
2024/01/21 01:21:26;;;;;;;8.00;7.33;;;;;;;;;;2613213;54;20391;-75
2024/01/21 01:26:56;;;;;;;7.30;6.70;;;;;;;;;;2613508;54;21084;-74
2024/01/21 01:36:07;;;;;;;6.13;5.80;;;;;;;;;;2612714;54;20415;-75
2024/01/21 01:41:36;;;;;;;7.10;6.57;;;;;;;;;;2613322;54;20418;-75
2024/01/21 01:47:06;;;;;;;8.10;7.43;;;;;;;;;;2613039;54;20371;-75
2024/01/21 01:52:35;;;;;;;8.53;7.23;;;;;;;;;;2613422;54;20395;-74
2024/01/21 01:58:05;;;;;;;8.93;8.03;;;;;;;;;;2612813;54;20399;-75
2024/01/21 02:03:35;;;;;;;6.70;6.30;;;;;;;;;;2615338;54;20395;-78
2024/01/21 02:09:05;;;;;;;7.80;7.20;;;;;;;;;;2616813;54;20384;-79
2024/01/21 02:14:35;;;;;;;8.03;7.33;;;;;;;;;;2614639;54;20484;-76
2024/01/21 02:20:07;;;;;;;6.77;6.20;;;;;;;;;;2614556;39;20741;-74
2024/01/21 02:25:36;;;;;;;6.97;6.43;;;;;;;;;;2613567;54;20432;-76
2024/01/21 02:31:05;;;;;;;6.73;6.40;;;;;;;;;;2615082;54;20391;-76
2024/01/21 02:36:35;;;;;;;8.60;6.63;;;;;;;;;;2614992;54;20450;-76
2024/01/21 02:42:05;;;;;;;7.20;6.70;;;;;;;;;;2615142;54;20482;-76
2024/01/21 02:47:34;;;;;;;6.47;6.07;;;;;;;;;;2614510;54;20439;-76
2024/01/21 02:53:04;;;;;;;8.17;7.47;;;;;;;;;;2615395;54;20423;-75
2024/01/21 02:58:34;;;;;;;6.60;6.13;;;;;;;;;;2614539;54;20365;-75
2024/01/21 03:04:04;;;;;;;5.73;5.33;;;;;;;;;;2613453;54;20359;-73
2024/01/21 03:09:33;;;;;;;7.83;7.23;;;;;;;;;;2613815;46;20462;-74
2024/01/21 03:15:04;;;;;;;7.47;6.87;;;;;;;;;;2613229;54;20370;-74
2024/01/21 03:20:33;;;;;;;6.90;6.40;;;;;;;;;;2615422;39;20863;-77
2024/01/21 03:26:03;;;;;;;8.90;8.10;;;;;;;;;;2614888;54;20378;-76
2024/01/21 03:31:33;;;;;;;7.47;6.87;;;;;;;;;;2615139;54;20357;-76
2024/01/21 03:37:02;;;;;;;8.20;7.70;;;;;;;;;;2615128;54;20429;-76
2024/01/21 03:42:32;;;;;;;10.63;7.30;;;;;;;;;;2616651;39;20827;-76
2024/01/21 03:48:03;;;;;;;8.77;7.07;;;;;;;;;;2615970;54;20428;-78
2024/01/21 03:53:32;;;;;;;7.83;7.07;;;;;;;;;;2616470;54;20390;-77
2024/01/21 03:59:02;;;;;;;8.00;7.30;;;;;;;;;;2616648;54;20403;-78
2024/01/21 04:04:32;;;;;;;6.63;6.13;;;;;;;;;;2616206;54;21124;-80
2024/01/21 04:10:03;;;;;;;8.90;6.53;;;;;;;;;;2616182;54;20477;-75
2024/01/21 04:15:34;;;;;;;7.70;7.20;;;;;;;;;;2615208;54;20372;-74
2024/01/21 04:21:04;;;;;;;8.00;6.90;;;;;;;;;;2615645;54;20362;-75
2024/01/21 04:26:33;;;;;;;6.87;6.43;;;;;;;;;;2614462;54;20371;-73
2024/01/21 04:32:03;;;;;;;9.07;7.93;;;;;;;;;;2616411;39;20834;-78
2024/01/21 04:41:11;;;;;;;7.63;7.10;;;;;;;;;;2616162;54;20448;-78
2024/01/21 04:46:41;;;;;;;8.93;8.17;;;;;;;;;;2615739;54;20449;-78
2024/01/21 04:52:10;;;;;;;7.40;6.90;;;;;;;;;;2616113;54;20394;-78
2024/01/21 04:57:40;;;;;;;8.30;7.57;;;;;;;;;;2615697;54;20467;-78
2024/01/21 05:03:10;;;;;;;7.10;6.57;;;;;;;;;;2616406;54;20444;-77
2024/01/21 05:08:39;;;;;;;7.30;6.80;;;;;;;;;;2616397;54;20362;-78
2024/01/21 05:14:09;;;;;;;6.87;6.37;;;;;;;;;;2616670;39;20860;-78
2024/01/21 05:19:39;;;;;;;6.97;6.57;;;;;;;;;;2615714;54;20358;-79
2024/01/21 05:25:08;;;;;;;7.70;7.10;;;;;;;;;;2613519;54;20432;-73
2024/01/21 05:30:38;;;;;;;7.63;7.03;;;;;;;;;;2612702;54;20387;-75
2024/01/21 05:36:11;;;;;;;7.37;6.77;;;;;;;;;;2616464;31;20813;-77
2024/01/21 05:41:43;;;;;;;8.00;7.50;;;;;;;;;;2615260;54;20495;-75
2024/01/21 05:47:13;;;;;;;8.73;8.03;;;;;;;;;;2615350;54;20491;-76
2024/01/21 05:52:43;;;;;;;7.63;6.90;;;;;;;;;;2613904;54;20398;-74
2024/01/21 05:58:13;;;;;;;7.07;6.57;;;;;;;;;;2612445;54;20355;-72
2024/01/21 06:03:42;;;;;;;10.57;8.23;;;;;;;;;;2613325;54;20402;-74
2024/01/21 06:09:12;;;;;;;7.50;6.90;;;;;;;;;;2615745;54;20937;-76
2024/01/21 06:14:44;;;;;;;6.93;6.50;;;;;;;;;;2615622;39;20440;-76
2024/01/21 06:20:14;;;;;;;7.37;6.97;;;;;;;;;;2613552;54;20381;-76
2024/01/21 06:25:43;;;;;;;8.80;7.27;;;;;;;;;;2613947;54;20389;-76
2024/01/21 06:31:13;;;;;;;7.73;7.23;;;;;;;;;;2614232;54;20483;-76
2024/01/21 06:36:42;;;;;;;7.00;6.30;;;;;;;;;;2613152;54;20366;-75
2024/01/21 06:42:12;;;;;;;9.37;8.27;;;;;;;;;;2612709;54;20485;-75
2024/01/21 06:47:42;;;;;;;8.90;8.10;;;;;;;;;;2612795;31;20827;-74
2024/01/21 06:53:12;;;;;;;7.00;6.50;;;;;;;;;;2613156;54;20374;-76
2024/01/21 06:58:41;;;;;;;8.47;7.63;;;;;;;;;;2611592;54;20370;-74
2024/01/21 07:04:12;;;;;;;9.23;8.43;;;;;;;;;;2615441;39;20508;-79
2024/01/21 07:09:42;;;;;;;8.23;7.43;;;;;;;;;;2615193;54;20375;-77
2024/01/21 07:15:11;;;;;;;8.70;8.00;;;;;;;;;;2612655;39;20831;-75
2024/01/21 07:20:41;;;;;;;9.17;8.37;;;;;;;;;;2613195;54;20374;-73
2024/01/21 07:26:11;;;;;;;8.90;8.13;;;;;;;;;;2614169;46;20385;-75
2024/01/21 07:31:41;;;;;;;8.50;6.87;;;;;;;;;;2613387;54;20391;-75
2024/01/21 07:43:18;;;;;;;9.43;8.30;;;;;;;;;;2614101;54;20382;-79
2024/01/21 07:48:48;;;;;;;7.10;6.47;;;;;;;;;;2614217;54;20373;-75
2024/01/21 07:54:17;;;;;;;9.23;8.30;;;;;;;;;;2615217;39;20934;-74
2024/01/21 07:59:47;;;;;;;9.13;8.20;;;;;;;;;;2614779;54;20518;-75
2024/01/21 08:05:17;;;;;;;9.57;8.77;;;;;;;;;;2612399;54;20414;-73
2024/01/21 08:10:47;;;;;;;8.23;7.43;;;;;;;;;;2610573;54;20386;-76
2024/01/21 08:16:17;;;;;;;9.60;8.80;;;;;;;;;;2613063;39;21014;-73
2024/01/21 08:21:47;;;;;;;11.63;10.20;;;;;;;;;;2613060;54;20410;-75
2024/01/21 08:27:17;;;;;;;8.70;7.93;;;;;;;;;;2616824;39;21068;-77
2024/01/21 08:32:46;;;;;;;17.20;11.80;;;;;;;;;;2614559;54;20408;-77
2024/01/21 08:44:23;;;;;;;9.50;8.57;;;;;;;;;;2617154;54;20428;-79
2024/01/21 08:49:53;;;;;;;10.90;9.80;;;;;;;;;;2617021;54;20365;-78
2024/01/21 08:55:23;;;;;;;9.90;9.00;;;;;;;;;;2613660;54;20375;-74
2024/01/21 09:00:52;;;;;;;9.90;8.93;;;;;;;;;;2612877;54;20415;-74
2024/01/21 09:06:22;;;;;;;9.83;8.77;;;;;;;;;;2614191;54;20390;-74
2024/01/21 09:11:52;;;;;;;12.27;9.90;;;;;;;;;;2614658;54;20378;-78
2024/01/21 09:17:21;;;;;;;10.40;9.37;;;;;;;;;;2614201;54;20422;-74
2024/01/21 09:22:51;;;;;;;14.33;9.67;;;;;;;;;;2613622;54;20378;-74
2024/01/21 09:28:21;;;;;;;12.00;9.53;;;;;;;;;;2614299;54;20428;-74
2024/01/21 09:33:51;;;;;;;8.10;7.27;;;;;;;;;;2616151;54;20397;-80
2024/01/21 09:43:02;;;;;;;11.63;9.10;;;;;;;;;;2615854;54;20425;-74
2024/01/21 09:48:32;;;;;;;12.03;9.87;;;;;;;;;;2613540;54;20949;-74
2024/01/21 09:54:04;;;;;;;12.67;11.37;;;;;;;;;;2614354;54;20387;-73
2024/01/21 09:59:34;;;;;;;8.87;8.03;;;;;;;;;;2616660;54;20407;-79
2024/01/21 10:05:04;;;;;;;10.07;9.23;;;;;;;;;;2614258;54;20404;-76
2024/01/21 10:10:34;;;;;;;11.23;9.50;;;;;;;;;;2615783;54;20369;-76
2024/01/21 10:16:04;;;;;;;11.87;10.60;;;;;;;;;;2615970;54;20476;-75
2024/01/21 10:21:34;;;;;;;10.77;9.67;;;;;;;;;;2615866;54;20356;-76
2024/01/21 10:27:05;;;;;;;13.23;10.53;;;;;;;;;;2615120;54;20486;-76
2024/01/21 10:29:50;;;;;;;10.60;9.70;;;;;;;;;;2616005;54;20959;-77
2024/01/21 10:32:18;;;;;;;8.17;7.57;;;;;;;;;;2616046;54;20419;-76
2024/01/21 10:37:47;;;;;;;11.50;10.33;;;;;;;;;;2616244;54;20474;-76
2024/01/21 10:43:18;;;;;;;8.63;7.80;;;;;;;;;;2616083;54;20445;-76
2024/01/21 10:48:48;;;;;;;7.87;7.27;;;;;;;;;;2616464;54;20340;-76
2024/01/21 10:54:18;;;;;;;13.17;9.50;;;;;;;;;;2616281;54;20419;-75
2024/01/21 10:59:48;;;;;;;7.90;5.87;;;;;;;;;;2615172;54;20418;-76
2024/01/21 11:05:17;;;;;;;9.47;8.70;;;;;;;;;;2610541;54;20412;-75
2024/01/21 11:10:51;;;;;;;7.90;7.20;;;;;;;;;;2613745;54;20919;-75
2024/01/21 11:16:28;;;;;;;10.47;8.20;;;;;;;;;;2616568;54;21055;-79
2024/01/21 11:21:58;;;;;;;8.30;7.50;;;;;;;;;;2615759;54;20358;-79
2024/01/21 11:27:29;;;;;;;7.93;7.17;;;;;;;;;;2613848;54;20379;-77
2024/01/21 11:33:01;;;;;;;11.70;8.30;;;;;;;;;;2615491;54;20351;-81
2024/01/21 11:38:30;;;;;;;10.10;9.20;;;;;;;;;;2616100;54;20414;-79
2024/01/21 11:47:40;;;;;;;8.83;7.93;;;;;;;;;;2615613;54;20378;-77
2024/01/21 11:53:10;;;;;;;8.50;7.70;;;;;;;;;;2615867;39;20894;-77
2024/01/21 11:58:40;;;;;;;7.20;6.47;;;;;;;;;;2614397;54;20333;-77
2024/01/21 12:01:26;;;;;;;11.10;8.03;;;;;;;;;;2615659;39;20789;-78
2024/01/21 12:03:53;;;;;;;12.27;11.00;;;;;;;;;;2613797;54;20370;-77
2024/01/21 12:09:23;;;;;;;14.07;10.40;;;;;;;;;;2614063;39;20792;-77
2024/01/21 12:14:53;;;;;;;16.90;10.07;;;;;;;;;;2613772;54;20374;-75
2024/01/21 12:20:23;;;;;;;10.50;9.40;;;;;;;;;;2614138;54;20415;-75
2024/01/21 12:25:52;;;;;;;12.10;8.47;;;;;;;;;;2614252;54;20390;-74
2024/01/21 12:31:26;;;;;;;11.17;8.17;;;;;;;;;;2613647;54;20379;-75
2024/01/21 12:36:56;;;;;;;10.77;9.57;;;;;;;;;;2614413;54;20411;-74
2024/01/21 12:42:26;;;;;;;16.57;9.23;;;;;;;;;;2614430;54;20379;-75
2024/01/21 12:47:56;;;;;;;9.77;8.53;;;;;;;;;;2614023;54;20425;-74
2024/01/21 12:53:27;;;;;;;11.13;8.77;;;;;;;;;;2613860;54;20411;-74
2024/01/21 12:58:57;;;;;;;10.60;7.87;;;;;;;;;;2613441;54;20382;-75
2024/01/21 13:04:26;;;;;;;10.67;9.10;;;;;;;;;;2614168;54;20951;-75
2024/01/21 13:09:57;;;;;;;11.03;7.20;;;;;;;;;;2612835;54;20949;-75
2024/01/21 13:15:27;;;;;;;9.80;8.80;;;;;;;;;;2614288;54;20504;-79
2024/01/21 13:20:57;;;;;;;10.17;8.30;;;;;;;;;;2613700;54;20398;-76
2024/01/21 13:26:27;;;;;;;10.20;9.10;;;;;;;;;;2612884;54;20376;-75
2024/01/21 13:31:56;;;;;;;10.23;8.63;;;;;;;;;;2615309;54;20375;-75
2024/01/21 13:37:26;;;;;;;13.27;8.33;;;;;;;;;;2617038;54;20407;-76
2024/01/21 13:42:56;;;;;;;12.13;9.40;;;;;;;;;;2617624;54;20398;-77
2024/01/21 13:57:46;;;;;;;8.60;7.47;;;;;;;;;;2613620;54;20496;-81
2024/01/21 14:03:17;;;;;;;8.60;7.70;;;;;;;;;;2613877;54;20368;-81
2024/01/21 14:08:46;;;;;;;8.73;7.80;;;;;;;;;;2614634;54;20342;-81
2024/01/21 14:14:15;;;;;;;8.10;5.93;;;;;;;;;;2615014;54;20374;-82
2024/01/21 14:19:45;;;;;;;10.17;7.60;;;;;;;;;;2615054;54;20394;-83
2024/01/21 14:25:15;;;;;;;8.93;7.93;;;;;;;;;;2615356;39;20766;-76
2024/01/21 14:30:47;;;;;;;11.07;7.80;;;;;;;;;;2614523;54;20391;-77
2024/01/21 14:36:17;;;;;;;6.67;6.07;;;;;;;;;;2615237;54;20994;-77
2024/01/21 14:41:46;;;;;;;8.63;7.57;;;;;;;;;;2615876;54;20636;-76
2024/01/21 14:47:16;;;;;;;6.83;6.10;;;;;;;;;;2616839;54;20399;-82
2024/01/21 14:52:47;;;;;;;11.60;7.00;;;;;;;;;;2616938;54;21277;-80
2024/01/21 14:58:16;;;;;;;9.80;7.23;;;;;;;;;;2616445;54;20373;-81
2024/01/21 15:03:46;;;;;;;14.50;8.13;;;;;;;;;;2615822;54;20358;-81
2024/01/21 15:09:16;;;;;;;13.90;8.27;;;;;;;;;;2616078;54;20411;-81
2024/01/21 15:14:56;;;;;;;11.03;7.90;;;;;;;;;;2614872;54;20399;-75
2024/01/21 15:20:27;;;;;;;10.57;7.60;;;;;;;;;;2614898;54;20342;-75
2024/01/21 15:26:00;;;;;;;7.67;6.57;;;;;;;;;;2616075;54;20396;-74
2024/01/21 15:31:31;;;;;;;13.70;6.40;;;;;;;;;;2615539;54;20394;-75
2024/01/21 15:37:01;;;;;;;10.57;6.87;;;;;;;;;;2615685;54;20387;-74
2024/01/21 15:42:31;;;;;;;7.97;5.87;;;;;;;;;;2615098;54;20889;-75
2024/01/21 15:54:09;;;;;;;12.03;9.13;;;;;;;;;;2615136;54;20487;-74
2024/01/21 15:59:38;;;;;;;10.63;5.17;;;;;;;;;;2614906;46;20366;-75
2024/01/21 16:05:08;;;;;;;14.70;8.27;;;;;;;;;;2615074;54;20371;-81
2024/01/21 16:10:37;;;;;;;8.93;8.00;;;;;;;;;;2615475;54;20548;-75
2024/01/21 16:16:07;;;;;;;11.83;7.30;;;;;;;;;;2615085;54;20378;-80
2024/01/21 16:21:37;;;;;;;8.43;6.70;;;;;;;;;;2615149;54;20375;-82
2024/01/21 16:27:07;;;;;;;11.97;7.60;;;;;;;;;;2615141;39;20982;-80
2024/01/21 16:32:37;;;;;;;13.03;6.47;;;;;;;;;;2614691;54;20370;-79
2024/01/21 16:38:07;;;;;;;9.70;7.37;;;;;;;;;;2614386;54;20370;-79
2024/01/21 16:43:37;;;;;;;7.90;5.80;;;;;;;;;;2614173;54;20382;-78
2024/01/21 16:55:14;;;;;;;9.10;7.53;;;;;;;;;;2615073;54;20391;-81
2024/01/21 17:00:46;;;;;;;10.80;7.60;;;;;;;;;;2614502;54;20372;-80
2024/01/21 17:06:15;;;;;;;9.70;8.20;;;;;;;;;;2614458;54;20428;-77
2024/01/21 17:11:49;;;;;;;10.10;7.60;;;;;;;;;;2613581;54;20393;-77
2024/01/21 17:17:20;;;;;;;7.53;6.13;;;;;;;;;;2614667;54;20412;-76
2024/01/21 17:22:50;;;;;;;7.93;7.10;;;;;;;;;;2613632;54;20415;-76
2024/01/21 17:28:20;;;;;;;10.00;7.40;;;;;;;;;;2614232;54;20394;-81
2024/01/21 17:33:51;;;;;;;14.47;6.77;;;;;;;;;;2614071;54;20383;-79
2024/01/21 17:39:20;;;;;;;10.97;7.50;;;;;;;;;;2615873;54;20501;-81
2024/01/21 17:44:51;;;;;;;12.37;8.80;;;;;;;;;;2613624;54;20386;-74
2024/01/21 17:53:54;;;;;;;8.80;7.47;;;;;;;;;;2614565;54;20381;-75
2024/01/21 17:59:23;;;;;;;7.03;6.33;;;;;;;;;;2614667;54;20453;-74
2024/01/21 18:02:10;;;;;;;10.77;8.03;;;;;;;;;;2614600;39;21051;-74
2024/01/21 18:04:36;;;;;;;16.00;7.10;;;;;;;;;;2614185;54;20554;-74
2024/01/21 18:10:06;;;;;;;13.87;7.40;;;;;;;;;;2613724;54;20444;-74
2024/01/21 18:15:38;;;;;;;9.43;7.90;;;;;;;;;;2614335;54;20830;-81
2024/01/21 18:21:08;;;;;;;14.17;8.27;;;;;;;;;;2614331;54;20389;-80
2024/01/21 18:26:38;;;;;;;11.30;7.90;;;;;;;;;;2614673;54;20499;-81
2024/01/21 18:32:08;;;;;;;10.23;4.57;;;;;;;;;;2614060;54;20410;-81
2024/01/21 18:37:37;;;;;;;9.40;6.10;;;;;;;;;;2613067;54;20362;-73
2024/01/21 18:43:07;;;;;;;7.80;5.77;;;;;;;;;;2612697;54;20388;-76
2024/01/21 18:48:40;;;;;;;9.80;6.80;;;;;;;;;;2613393;54;20403;-74
2024/01/21 18:54:10;;;;;;;8.53;6.73;;;;;;;;;;2614391;54;20371;-74
2024/01/21 18:59:42;;;;;;;10.00;6.37;;;;;;;;;;2615764;54;20384;-73
2024/01/21 19:05:13;;;;;;;10.17;5.50;;;;;;;;;;2613916;54;20371;-75
2024/01/21 19:10:43;;;;;;;11.80;6.37;;;;;;;;;;2613489;54;20374;-73
2024/01/21 19:16:12;;;;;;;9.03;5.90;;;;;;;;;;2614724;54;20375;-77
2024/01/21 19:21:42;;;;;;;9.43;6.33;;;;;;;;;;2616154;54;20495;-77
2024/01/21 19:27:12;;;;;;;6.80;5.23;;;;;;;;;;2615184;54;21219;-75
2024/01/21 19:32:42;;;;;;;7.23;6.27;;;;;;;;;;2615984;54;20885;-77
2024/01/21 19:38:12;;;;;;;9.97;5.50;;;;;;;;;;2614119;39;21039;-81
2024/01/21 19:43:42;;;;;;;14.03;6.47;;;;;;;;;;2613978;39;21005;-79
2024/01/21 19:49:12;;;;;;;7.03;5.07;;;;;;;;;;2612601;54;20389;-79
2024/01/21 19:54:42;;;;;;;8.67;5.50;;;;;;;;;;2613821;54;20383;-81
2024/01/21 20:00:11;;;;;;;4.77;3.93;;;;;;;;;;2613768;54;20379;-82
2024/01/21 20:05:41;;;;;;;7.80;5.90;;;;;;;;;;2613822;54;20380;-82
2024/01/21 20:11:10;;;;;;;3.50;2.90;;;;;;;;;;2614108;39;20780;-79
2024/01/21 20:16:40;;;;;;;5.83;5.00;;;;;;;;;;2612841;54;20503;-76
2024/01/21 20:22:10;;;;;;;7.40;5.37;;;;;;;;;;2611872;54;20411;-76
2024/01/21 20:27:41;;;;;;;5.50;3.93;;;;;;;;;;2612941;54;20395;-73
2024/01/21 20:33:10;;;;;;;12.90;5.53;;;;;;;;;;2612072;54;20372;-73
2024/01/21 20:38:40;;;;;;;4.60;3.27;;;;;;;;;;2613464;39;20778;-73
2024/01/21 20:44:10;;;;;;;6.53;4.13;;;;;;;;;;2612804;39;20793;-73
2024/01/21 20:55:47;;;;;;;7.93;4.60;;;;;;;;;;2610775;54;20392;-76
2024/01/21 21:01:17;;;;;;;5.83;5.23;;;;;;;;;;2609504;54;20404;-76
2024/01/21 21:06:47;;;;;;;6.07;3.80;;;;;;;;;;2609766;54;20901;-75
2024/01/21 21:12:17;;;;;;;4.10;3.43;;;;;;;;;;2610900;54;20352;-76
2024/01/21 21:17:47;;;;;;;6.53;4.20;;;;;;;;;;2610054;54;20910;-77
2024/01/21 21:23:16;;;;;;;6.80;4.23;;;;;;;;;;2610106;54;20970;-76
2024/01/21 21:28:46;;;;;;;10.83;5.60;;;;;;;;;;2612484;54;20915;-75
2024/01/21 21:34:16;;;;;;;6.10;4.53;;;;;;;;;;2611938;54;20371;-76
2024/01/21 21:39:45;;;;;;;5.87;4.30;;;;;;;;;;2613767;54;20381;-77
2024/01/21 21:45:15;;;;;;;8.27;3.73;;;;;;;;;;2614770;39;20790;-78
2024/01/21 21:54:26;;;;;;;6.60;4.30;;;;;;;;;;2614142;54;20949;-77
2024/01/21 21:59:57;;;;;;;5.80;4.07;;;;;;;;;;2613036;54;20370;-77
2024/01/21 22:05:27;;;;;;;7.13;2.40;;;;;;;;;;2613309;54;20427;-77
2024/01/21 22:10:56;;;;;;;4.70;3.83;;;;;;;;;;2609857;54;20394;-77
2024/01/21 22:16:26;;;;;;;7.73;4.47;;;;;;;;;;2610292;54;21000;-77
2024/01/21 22:21:56;;;;;;;5.80;4.33;;;;;;;;;;2612223;54;20419;-76
2024/01/21 22:27:26;;;;;;;4.00;2.87;;;;;;;;;;2610963;54;20365;-76
2024/01/21 22:32:55;;;;;;;7.93;3.70;;;;;;;;;;2611242;39;20775;-73
2024/01/21 22:38:26;;;;;;;5.03;4.43;;;;;;;;;;2610665;54;21409;-76
2024/01/21 22:43:56;;;;;;;6.23;3.50;;;;;;;;;;2610297;54;20391;-75
2024/01/21 22:49:29;;;;;;;5.30;3.60;;;;;;;;;;2612696;54;20971;-75
2024/01/21 22:54:58;;;;;;;4.87;3.50;;;;;;;;;;2612363;54;20559;-75
2024/01/21 23:00:30;;;;;;;2.57;2.33;;;;;;;;;;2613379;54;20437;-74
2024/01/21 23:06:00;;;;;;;4.30;3.00;;;;;;;;;;2612378;46;20432;-74
2024/01/21 23:11:30;;;;;;;5.50;3.47;;;;;;;;;;2611872;54;20385;-75
2024/01/21 23:16:59;;;;;;;4.37;3.37;;;;;;;;;;2613163;54;20468;-75
2024/01/21 23:22:29;;;;;;;5.77;3.30;;;;;;;;;;2609815;54;20484;-75
2024/01/21 23:27:59;;;;;;;4.63;1.97;;;;;;;;;;2610315;54;20379;-73
2024/01/21 23:33:29;;;;;;;4.60;2.90;;;;;;;;;;2613585;39;20771;-75
2024/01/21 23:38:58;;;;;;;4.77;3.40;;;;;;;;;;2609957;54;20917;-75
2024/01/21 23:44:28;;;;;;;3.10;2.77;;;;;;;;;;2610314;54;20381;-75
2024/01/21 23:49:58;;;;;;;3.57;3.23;;;;;;;;;;2612418;54;20869;-72
2024/01/21 23:55:28;;;;;;;8.00;3.27;;;;;;;;;;2608881;54;20451;-73
